Terminal Aerodrome Forecast
Issued by NWS

Current Version | Previous Version | Graphics & Text | Print | Product List | Glossary On
Versions: 1 2 3 4 5 6 7 8 9 10 11 12 13 14 15 16 17 18 19 20
000
FTUS41 KILN 171600 AAA
TAFLUK
TAF AMD
KLUK 171636Z 1717/1812 03005KT P6SM BKN040
     FM172300 VRB02KT P6SM BKN100
     FM180600 02004KT P6SM SCT100
     FM180900 04007KT 3SM BR SCT040=

USA.gov is the U.S. government's official web portal to all federal, state and local government web resources and services.